sensor_id;sensor_type;location;lat;lon;timestamp;temperature;humidity
44431;DHT22;30135;47.866;-4.222;2023-06-24T00:01:26;19.20;88.30
44431;DHT22;30135;47.866;-4.222;2023-06-24T00:03:52;19.20;88.50
44431;DHT22;30135;47.866;-4.222;2023-06-24T00:06:22;19.10;88.50
44431;DHT22;30135;47.866;-4.222;2023-06-24T00:08:52;19.10;88.70
44431;DHT22;30135;47.866;-4.222;2023-06-24T00:11:29;19.10;88.70
44431;DHT22;30135;47.866;-4.222;2023-06-24T00:13:55;19.10;88.90
44431;DHT22;30135;47.866;-4.222;2023-06-24T00:16:22;19.10;89.00
44431;DHT22;30135;47.866;-4.222;2023-06-24T00:18:56;19.10;89.00
44431;DHT22;30135;47.866;-4.222;2023-06-24T00:21:26;19.00;89.10
44431;DHT22;30135;47.866;-4.222;2023-06-24T00:23:59;19.00;89.30
44431;DHT22;30135;47.866;-4.222;2023-06-24T00:26:30;19.00;89.40
44431;DHT22;30135;47.866;-4.222;2023-06-24T00:28:58;19.00;89.60
44431;DHT22;30135;47.866;-4.222;2023-06-24T00:31:24;18.90;89.70
44431;DHT22;30135;47.866;-4.222;2023-06-24T00:33:50;18.90;89.80
44431;DHT22;30135;47.866;-4.222;2023-06-24T00:36:17;18.90;90.00
44431;DHT22;30135;47.866;-4.222;2023-06-24T00:38:44;18.90;90.00
44431;DHT22;30135;47.866;-4.222;2023-06-24T00:41:10;18.90;90.00
44431;DHT22;30135;47.866;-4.222;2023-06-24T00:43:36;18.90;90.10
44431;DHT22;30135;47.866;-4.222;2023-06-24T00:46:03;18.80;90.10
44431;DHT22;30135;47.866;-4.222;2023-06-24T00:48:29;18.80;90.20
44431;DHT22;30135;47.866;-4.222;2023-06-24T00:50:57;18.80;90.20
44431;DHT22;30135;47.866;-4.222;2023-06-24T00:53:24;18.80;90.30
44431;DHT22;30135;47.866;-4.222;2023-06-24T00:55:51;18.80;90.30
44431;DHT22;30135;47.866;-4.222;2023-06-24T00:58:18;18.80;90.30
44431;DHT22;30135;47.866;-4.222;2023-06-24T01:00:47;18.80;90.30
44431;DHT22;30135;47.866;-4.222;2023-06-24T01:03:23;18.70;90.30
44431;DHT22;30135;47.866;-4.222;2023-06-24T01:05:50;18.70;90.30
44431;DHT22;30135;47.866;-4.222;2023-06-24T01:08:18;18.70;90.40
44431;DHT22;30135;47.866;-4.222;2023-06-24T01:10:45;18.70;90.40
44431;DHT22;30135;47.866;-4.222;2023-06-24T01:13:11;18.60;90.40
44431;DHT22;30135;47.866;-4.222;2023-06-24T01:15:37;18.60;90.40
44431;DHT22;30135;47.866;-4.222;2023-06-24T01:18:36;18.60;90.50
44431;DHT22;30135;47.866;-4.222;2023-06-24T01:21:21;18.60;90.50
44431;DHT22;30135;47.866;-4.222;2023-06-24T01:30:32;18.50;90.60
44431;DHT22;30135;47.866;-4.222;2023-06-24T01:33:30;18.50;90.60
44431;DHT22;30135;47.866;-4.222;2023-06-24T01:36:02;18.50;90.70
44431;DHT22;30135;47.866;-4.222;2023-06-24T01:38:36;18.50;90.70
44431;DHT22;30135;47.866;-4.222;2023-06-24T01:41:10;18.40;90.70
44431;DHT22;30135;47.866;-4.222;2023-06-24T01:43:42;18.50;90.70
44431;DHT22;30135;47.866;-4.222;2023-06-24T01:46:10;18.40;90.60
44431;DHT22;30135;47.866;-4.222;2023-06-24T01:48:39;18.40;90.60
44431;DHT22;30135;47.866;-4.222;2023-06-24T01:51:12;18.40;90.90
44431;DHT22;30135;47.866;-4.222;2023-06-24T01:53:48;18.30;90.60
44431;DHT22;30135;47.866;-4.222;2023-06-24T01:56:16;18.30;90.60
44431;DHT22;30135;47.866;-4.222;2023-06-24T01:58:43;18.30;90.60
44431;DHT22;30135;47.866;-4.222;2023-06-24T02:01:11;18.30;90.60
44431;DHT22;30135;47.866;-4.222;2023-06-24T02:03:39;18.30;90.60
44431;DHT22;30135;47.866;-4.222;2023-06-24T02:06:07;18.20;90.60
44431;DHT22;30135;47.866;-4.222;2023-06-24T02:08:37;18.20;90.60
44431;DHT22;30135;47.866;-4.222;2023-06-24T02:11:04;18.20;90.60
44431;DHT22;30135;47.866;-4.222;2023-06-24T02:13:33;18.20;90.60
44431;DHT22;30135;47.866;-4.222;2023-06-24T02:16:04;18.10;90.60
44431;DHT22;30135;47.866;-4.222;2023-06-24T02:18:34;18.10;90.60
44431;DHT22;30135;47.866;-4.222;2023-06-24T02:21:01;18.10;90.60
44431;DHT22;30135;47.866;-4.222;2023-06-24T02:23:29;18.10;91.00
44431;DHT22;30135;47.866;-4.222;2023-06-24T02:25:56;18.00;90.60
44431;DHT22;30135;47.866;-4.222;2023-06-24T02:28:22;18.00;90.60
44431;DHT22;30135;47.866;-4.222;2023-06-24T02:30:50;18.00;90.70
44431;DHT22;30135;47.866;-4.222;2023-06-24T02:33:16;18.00;90.70
44431;DHT22;30135;47.866;-4.222;2023-06-24T02:35:42;17.90;91.00
44431;DHT22;30135;47.866;-4.222;2023-06-24T02:38:11;18.00;90.70
44431;DHT22;30135;47.866;-4.222;2023-06-24T02:40:37;18.00;90.70
44431;DHT22;30135;47.866;-4.222;2023-06-24T02:43:03;17.90;90.70
44431;DHT22;30135;47.866;-4.222;2023-06-24T02:45:29;17.90;90.80
44431;DHT22;30135;47.866;-4.222;2023-06-24T02:47:56;17.90;90.80
44431;DHT22;30135;47.866;-4.222;2023-06-24T02:50:23;17.90;90.90
44431;DHT22;30135;47.866;-4.222;2023-06-24T02:52:50;17.90;90.90
44431;DHT22;30135;47.866;-4.222;2023-06-24T02:55:17;17.90;90.80
44431;DHT22;30135;47.866;-4.222;2023-06-24T02:57:44;17.90;90.80
44431;DHT22;30135;47.866;-4.222;2023-06-24T03:00:10;17.90;90.80
44431;DHT22;30135;47.866;-4.222;2023-06-24T03:02:39;17.80;90.70
44431;DHT22;30135;47.866;-4.222;2023-06-24T03:05:06;17.80;90.80
44431;DHT22;30135;47.866;-4.222;2023-06-24T03:07:33;17.80;90.80
44431;DHT22;30135;47.866;-4.222;2023-06-24T03:10:03;17.80;90.70
44431;DHT22;30135;47.866;-4.222;2023-06-24T03:12:31;17.70;90.70
44431;DHT22;30135;47.866;-4.222;2023-06-24T03:14:57;17.70;90.70
44431;DHT22;30135;47.866;-4.222;2023-06-24T03:17:23;17.70;90.70
44431;DHT22;30135;47.866;-4.222;2023-06-24T03:19:50;17.70;90.80
44431;DHT22;30135;47.866;-4.222;2023-06-24T03:22:16;17.70;90.80
44431;DHT22;30135;47.866;-4.222;2023-06-24T03:24:43;17.60;90.80
44431;DHT22;30135;47.866;-4.222;2023-06-24T03:27:09;17.60;90.80
44431;DHT22;30135;47.866;-4.222;2023-06-24T03:29:35;17.60;90.80
44431;DHT22;30135;47.866;-4.222;2023-06-24T03:32:01;17.60;90.80
44431;DHT22;30135;47.866;-4.222;2023-06-24T03:34:27;17.50;90.70
44431;DHT22;30135;47.866;-4.222;2023-06-24T03:36:54;17.50;90.70
44431;DHT22;30135;47.866;-4.222;2023-06-24T03:39:22;17.50;90.70
44431;DHT22;30135;47.866;-4.222;2023-06-24T03:41:48;17.50;90.70
44431;DHT22;30135;47.866;-4.222;2023-06-24T03:44:15;17.40;90.70
44431;DHT22;30135;47.866;-4.222;2023-06-24T03:46:41;17.40;90.70
44431;DHT22;30135;47.866;-4.222;2023-06-24T03:49:07;17.40;90.80
44431;DHT22;30135;47.866;-4.222;2023-06-24T03:51:33;17.40;90.90
44431;DHT22;30135;47.866;-4.222;2023-06-24T03:53:59;17.40;90.90
44431;DHT22;30135;47.866;-4.222;2023-06-24T03:56:25;17.40;91.00
44431;DHT22;30135;47.866;-4.222;2023-06-24T03:58:51;17.30;90.90
44431;DHT22;30135;47.866;-4.222;2023-06-24T04:01:19;17.30;91.00
44431;DHT22;30135;47.866;-4.222;2023-06-24T04:03:46;17.30;91.00
44431;DHT22;30135;47.866;-4.222;2023-06-24T04:06:12;17.30;91.00
44431;DHT22;30135;47.866;-4.222;2023-06-24T04:08:41;17.30;91.00
44431;DHT22;30135;47.866;-4.222;2023-06-24T04:11:09;17.20;90.90
44431;DHT22;30135;47.866;-4.222;2023-06-24T04:13:36;17.20;90.90
44431;DHT22;30135;47.866;-4.222;2023-06-24T04:16:02;17.20;90.90
44431;DHT22;30135;47.866;-4.222;2023-06-24T04:18:28;17.20;90.80
44431;DHT22;30135;47.866;-4.222;2023-06-24T04:20:54;17.10;90.80
44431;DHT22;30135;47.866;-4.222;2023-06-24T04:23:20;17.10;90.80
44431;DHT22;30135;47.866;-4.222;2023-06-24T04:25:46;17.10;90.90
44431;DHT22;30135;47.866;-4.222;2023-06-24T04:28:12;17.00;90.80
44431;DHT22;30135;47.866;-4.222;2023-06-24T04:30:38;17.00;90.90
44431;DHT22;30135;47.866;-4.222;2023-06-24T04:33:04;17.00;90.90
44431;DHT22;30135;47.866;-4.222;2023-06-24T04:35:31;17.00;90.90
44431;DHT22;30135;47.866;-4.222;2023-06-24T04:37:57;17.00;90.90
44431;DHT22;30135;47.866;-4.222;2023-06-24T04:40:23;17.00;90.90
44431;DHT22;30135;47.866;-4.222;2023-06-24T04:42:49;17.00;90.90
44431;DHT22;30135;47.866;-4.222;2023-06-24T04:45:17;17.00;91.00
44431;DHT22;30135;47.866;-4.222;2023-06-24T04:47:43;17.00;91.00
44431;DHT22;30135;47.866;-4.222;2023-06-24T04:50:10;16.90;91.10
44431;DHT22;30135;47.866;-4.222;2023-06-24T04:52:36;16.90;91.40
44431;DHT22;30135;47.866;-4.222;2023-06-24T04:55:03;16.90;91.10
44431;DHT22;30135;47.866;-4.222;2023-06-24T04:57:31;16.90;91.10
44431;DHT22;30135;47.866;-4.222;2023-06-24T04:59:58;16.90;91.20
44431;DHT22;30135;47.866;-4.222;2023-06-24T05:02:24;16.90;91.20
44431;DHT22;30135;47.866;-4.222;2023-06-24T05:04:51;16.90;91.20
44431;DHT22;30135;47.866;-4.222;2023-06-24T05:07:18;16.90;91.30
44431;DHT22;30135;47.866;-4.222;2023-06-24T05:09:48;16.90;91.30
44431;DHT22;30135;47.866;-4.222;2023-06-24T05:12:16;16.90;91.30
44431;DHT22;30135;47.866;-4.222;2023-06-24T05:14:42;16.90;91.30
44431;DHT22;30135;47.866;-4.222;2023-06-24T05:17:08;16.90;91.40
44431;DHT22;30135;47.866;-4.222;2023-06-24T05:19:34;16.90;91.50
44431;DHT22;30135;47.866;-4.222;2023-06-24T05:22:00;16.90;91.50
44431;DHT22;30135;47.866;-4.222;2023-06-24T05:24:26;16.90;91.60
44431;DHT22;30135;47.866;-4.222;2023-06-24T05:26:52;16.90;91.70
44431;DHT22;30135;47.866;-4.222;2023-06-24T05:29:21;16.90;91.80
44431;DHT22;30135;47.866;-4.222;2023-06-24T05:31:46;16.90;91.90
44431;DHT22;30135;47.866;-4.222;2023-06-24T05:34:12;16.90;92.00
44431;DHT22;30135;47.866;-4.222;2023-06-24T05:36:38;17.00;92.10
44431;DHT22;30135;47.866;-4.222;2023-06-24T05:39:04;16.90;92.20
44431;DHT22;30135;47.866;-4.222;2023-06-24T05:41:33;17.00;92.30
44431;DHT22;30135;47.866;-4.222;2023-06-24T05:44:07;17.00;92.40
44431;DHT22;30135;47.866;-4.222;2023-06-24T05:46:35;17.00;92.50
44431;DHT22;30135;47.866;-4.222;2023-06-24T05:49:02;17.00;92.50
44431;DHT22;30135;47.866;-4.222;2023-06-24T05:51:28;17.10;92.60
44431;DHT22;30135;47.866;-4.222;2023-06-24T05:53:54;17.10;92.80
44431;DHT22;30135;47.866;-4.222;2023-06-24T05:56:21;17.10;92.80
44431;DHT22;30135;47.866;-4.222;2023-06-24T05:58:48;17.10;92.90
44431;DHT22;30135;47.866;-4.222;2023-06-24T06:01:15;17.20;93.00
44431;DHT22;30135;47.866;-4.222;2023-06-24T06:03:41;17.20;93.00
44431;DHT22;30135;47.866;-4.222;2023-06-24T06:06:07;17.20;93.10
44431;DHT22;30135;47.866;-4.222;2023-06-24T06:08:33;17.20;93.20
44431;DHT22;30135;47.866;-4.222;2023-06-24T06:11:00;17.20;93.20
44431;DHT22;30135;47.866;-4.222;2023-06-24T06:13:30;17.30;93.30
44431;DHT22;30135;47.866;-4.222;2023-06-24T06:15:56;17.30;93.40
44431;DHT22;30135;47.866;-4.222;2023-06-24T06:18:23;17.30;93.40
44431;DHT22;30135;47.866;-4.222;2023-06-24T06:20:49;17.30;93.40
44431;DHT22;30135;47.866;-4.222;2023-06-24T06:23:16;17.40;93.50
44431;DHT22;30135;47.866;-4.222;2023-06-24T06:25:42;17.40;93.60
44431;DHT22;30135;47.866;-4.222;2023-06-24T06:28:09;17.40;93.60
44431;DHT22;30135;47.866;-4.222;2023-06-24T06:30:35;17.50;93.70
44431;DHT22;30135;47.866;-4.222;2023-06-24T06:33:00;17.50;93.70
44431;DHT22;30135;47.866;-4.222;2023-06-24T06:35:26;17.50;93.80
44431;DHT22;30135;47.866;-4.222;2023-06-24T06:37:52;17.60;93.90
44431;DHT22;30135;47.866;-4.222;2023-06-24T06:40:23;17.60;93.80
44431;DHT22;30135;47.866;-4.222;2023-06-24T06:42:49;17.70;93.90
44431;DHT22;30135;47.866;-4.222;2023-06-24T06:45:15;17.70;93.80
44431;DHT22;30135;47.866;-4.222;2023-06-24T06:47:41;17.70;93.80
44431;DHT22;30135;47.866;-4.222;2023-06-24T06:50:07;17.70;93.80
44431;DHT22;30135;47.866;-4.222;2023-06-24T06:52:34;17.70;93.90
44431;DHT22;30135;47.866;-4.222;2023-06-24T06:55:00;17.80;94.00
44431;DHT22;30135;47.866;-4.222;2023-06-24T06:57:26;17.90;94.10
44431;DHT22;30135;47.866;-4.222;2023-06-24T06:59:52;17.90;94.20
44431;DHT22;30135;47.866;-4.222;2023-06-24T07:02:18;17.90;94.10
44431;DHT22;30135;47.866;-4.222;2023-06-24T07:04:45;18.00;94.10
44431;DHT22;30135;47.866;-4.222;2023-06-24T07:07:13;18.10;94.20
44431;DHT22;30135;47.866;-4.222;2023-06-24T07:09:39;18.10;94.20
44431;DHT22;30135;47.866;-4.222;2023-06-24T07:12:06;18.20;94.30
44431;DHT22;30135;47.866;-4.222;2023-06-24T07:14:32;18.20;94.20
44431;DHT22;30135;47.866;-4.222;2023-06-24T07:16:58;18.30;94.20
44431;DHT22;30135;47.866;-4.222;2023-06-24T07:19:24;18.30;94.10
44431;DHT22;30135;47.866;-4.222;2023-06-24T07:21:51;18.40;94.10
44431;DHT22;30135;47.866;-4.222;2023-06-24T07:24:17;18.40;94.00
44431;DHT22;30135;47.866;-4.222;2023-06-24T07:26:43;18.40;93.90
44431;DHT22;30135;47.866;-4.222;2023-06-24T07:29:09;18.50;93.90
44431;DHT22;30135;47.866;-4.222;2023-06-24T07:31:36;18.60;93.90
44431;DHT22;30135;47.866;-4.222;2023-06-24T07:34:04;18.60;93.80
44431;DHT22;30135;47.866;-4.222;2023-06-24T07:36:31;18.70;93.80
44431;DHT22;30135;47.866;-4.222;2023-06-24T07:38:57;18.70;93.70
44431;DHT22;30135;47.866;-4.222;2023-06-24T07:41:23;18.80;93.70
44431;DHT22;30135;47.866;-4.222;2023-06-24T07:43:49;18.80;93.60
44431;DHT22;30135;47.866;-4.222;2023-06-24T07:46:15;18.90;93.50
44431;DHT22;30135;47.866;-4.222;2023-06-24T07:48:41;18.90;93.30
44431;DHT22;30135;47.866;-4.222;2023-06-24T07:51:13;19.00;93.20
44431;DHT22;30135;47.866;-4.222;2023-06-24T07:53:39;19.10;93.10
44431;DHT22;30135;47.866;-4.222;2023-06-24T07:56:05;19.10;93.00
44431;DHT22;30135;47.866;-4.222;2023-06-24T07:58:31;19.20;93.00
44431;DHT22;30135;47.866;-4.222;2023-06-24T08:00:57;19.30;92.90
44431;DHT22;30135;47.866;-4.222;2023-06-24T08:03:23;19.40;92.80
44431;DHT22;30135;47.866;-4.222;2023-06-24T08:05:49;19.40;92.50
44431;DHT22;30135;47.866;-4.222;2023-06-24T08:08:15;19.50;92.30
44431;DHT22;30135;47.866;-4.222;2023-06-24T08:10:41;19.60;92.10
44431;DHT22;30135;47.866;-4.222;2023-06-24T08:13:07;19.70;91.90
44431;DHT22;30135;47.866;-4.222;2023-06-24T08:15:33;19.80;91.60
44431;DHT22;30135;47.866;-4.222;2023-06-24T08:17:59;19.80;91.30
44431;DHT22;30135;47.866;-4.222;2023-06-24T08:20:25;19.90;91.00
44431;DHT22;30135;47.866;-4.222;2023-06-24T08:22:51;20.00;90.80
44431;DHT22;30135;47.866;-4.222;2023-06-24T08:25:17;20.00;90.70
44431;DHT22;30135;47.866;-4.222;2023-06-24T08:27:43;20.10;90.60
44431;DHT22;30135;47.866;-4.222;2023-06-24T08:30:12;20.10;90.40
44431;DHT22;30135;47.866;-4.222;2023-06-24T08:32:42;20.20;90.40
44431;DHT22;30135;47.866;-4.222;2023-06-24T08:35:11;20.20;90.30
44431;DHT22;30135;47.866;-4.222;2023-06-24T08:37:37;20.30;90.20
44431;DHT22;30135;47.866;-4.222;2023-06-24T08:40:04;20.30;90.10
44431;DHT22;30135;47.866;-4.222;2023-06-24T08:42:30;20.40;89.80
44431;DHT22;30135;47.866;-4.222;2023-06-24T08:44:56;20.50;89.40
44431;DHT22;30135;47.866;-4.222;2023-06-24T08:47:24;20.50;89.30
44431;DHT22;30135;47.866;-4.222;2023-06-24T08:50:11;20.60;89.00
44431;DHT22;30135;47.866;-4.222;2023-06-24T08:52:38;20.70;89.50
44431;DHT22;30135;47.866;-4.222;2023-06-24T08:55:12;20.70;88.60
44431;DHT22;30135;47.866;-4.222;2023-06-24T08:57:39;20.70;88.10
44431;DHT22;30135;47.866;-4.222;2023-06-24T09:00:06;20.80;87.90
44431;DHT22;30135;47.866;-4.222;2023-06-24T09:02:39;20.80;87.80
44431;DHT22;30135;47.866;-4.222;2023-06-24T09:05:06;20.90;87.30
44431;DHT22;30135;47.866;-4.222;2023-06-24T09:07:33;21.00;86.60
44431;DHT22;30135;47.866;-4.222;2023-06-24T09:09:59;21.10;86.00
44431;DHT22;30135;47.866;-4.222;2023-06-24T09:12:31;21.10;85.30
44431;DHT22;30135;47.866;-4.222;2023-06-24T09:14:58;21.20;83.80
44431;DHT22;30135;47.866;-4.222;2023-06-24T09:17:24;21.30;84.90
44431;DHT22;30135;47.866;-4.222;2023-06-24T09:19:50;21.40;84.50
44431;DHT22;30135;47.866;-4.222;2023-06-24T09:22:17;21.40;84.10
44431;DHT22;30135;47.866;-4.222;2023-06-24T09:24:45;21.50;83.70
44431;DHT22;30135;47.866;-4.222;2023-06-24T09:27:17;21.50;83.20
44431;DHT22;30135;47.866;-4.222;2023-06-24T09:29:45;21.60;82.70
44431;DHT22;30135;47.866;-4.222;2023-06-24T09:32:13;21.60;82.60
44431;DHT22;30135;47.866;-4.222;2023-06-24T09:34:39;21.70;82.30
44431;DHT22;30135;47.866;-4.222;2023-06-24T09:37:05;21.70;82.10
44431;DHT22;30135;47.866;-4.222;2023-06-24T09:39:39;21.70;81.70
44431;DHT22;30135;47.866;-4.222;2023-06-24T09:42:06;21.80;81.40
44431;DHT22;30135;47.866;-4.222;2023-06-24T09:44:33;21.80;81.80
44431;DHT22;30135;47.866;-4.222;2023-06-24T09:46:59;21.90;81.50
44431;DHT22;30135;47.866;-4.222;2023-06-24T09:49:25;22.00;81.20
44431;DHT22;30135;47.866;-4.222;2023-06-24T09:51:56;22.00;80.70
44431;DHT22;30135;47.866;-4.222;2023-06-24T09:54:25;22.10;80.60
44431;DHT22;30135;47.866;-4.222;2023-06-24T09:56:54;22.10;80.50
44431;DHT22;30135;47.866;-4.222;2023-06-24T09:59:21;22.20;80.50
44431;DHT22;30135;47.866;-4.222;2023-06-24T10:01:49;22.20;80.00
44431;DHT22;30135;47.866;-4.222;2023-06-24T10:04:19;22.20;79.90
44431;DHT22;30135;47.866;-4.222;2023-06-24T10:06:46;22.30;79.80
44431;DHT22;30135;47.866;-4.222;2023-06-24T10:09:12;22.30;79.60
44431;DHT22;30135;47.866;-4.222;2023-06-24T10:11:43;22.40;79.60
44431;DHT22;30135;47.866;-4.222;2023-06-24T10:14:10;22.40;79.60
44431;DHT22;30135;47.866;-4.222;2023-06-24T10:16:36;22.50;79.70
44431;DHT22;30135;47.866;-4.222;2023-06-24T10:19:03;22.50;79.20
44431;DHT22;30135;47.866;-4.222;2023-06-24T10:21:57;22.60;79.00
44431;DHT22;30135;47.866;-4.222;2023-06-24T10:24:39;22.70;78.70
44431;DHT22;30135;47.866;-4.222;2023-06-24T10:27:09;22.70;78.30
44431;DHT22;30135;47.866;-4.222;2023-06-24T10:29:45;22.80;78.30
44431;DHT22;30135;47.866;-4.222;2023-06-24T10:32:12;22.80;77.90
44431;DHT22;30135;47.866;-4.222;2023-06-24T10:37:21;22.90;77.70
44431;DHT22;30135;47.866;-4.222;2023-06-24T10:45:19;23.10;76.60
44431;DHT22;30135;47.866;-4.222;2023-06-24T10:47:50;23.20;75.50
44431;DHT22;30135;47.866;-4.222;2023-06-24T10:50:21;23.20;75.70
44431;DHT22;30135;47.866;-4.222;2023-06-24T10:52:50;23.30;75.40
44431;DHT22;30135;47.866;-4.222;2023-06-24T10:55:25;23.40;75.00
44431;DHT22;30135;47.866;-4.222;2023-06-24T10:57:51;23.50;74.80
44431;DHT22;30135;47.866;-4.222;2023-06-24T11:00:20;23.50;74.50
44431;DHT22;30135;47.866;-4.222;2023-06-24T11:02:46;23.60;74.10
44431;DHT22;30135;47.866;-4.222;2023-06-24T11:05:12;23.70;74.00
44431;DHT22;30135;47.866;-4.222;2023-06-24T11:07:39;23.70;73.20
44431;DHT22;30135;47.866;-4.222;2023-06-24T11:12:42;23.80;73.10
44431;DHT22;30135;47.866;-4.222;2023-06-24T11:15:10;23.90;72.80
44431;DHT22;30135;47.866;-4.222;2023-06-24T11:17:38;24.00;72.00
44431;DHT22;30135;47.866;-4.222;2023-06-24T11:20:09;24.00;71.80
44431;DHT22;30135;47.866;-4.222;2023-06-24T11:22:39;24.10;70.90
44431;DHT22;30135;47.866;-4.222;2023-06-24T11:25:06;24.10;70.60
44431;DHT22;30135;47.866;-4.222;2023-06-24T11:27:41;24.20;70.40
44431;DHT22;30135;47.866;-4.222;2023-06-24T11:30:07;24.30;70.10
44431;DHT22;30135;47.866;-4.222;2023-06-24T11:32:41;24.30;69.80
44431;DHT22;30135;47.866;-4.222;2023-06-24T11:35:10;24.40;69.50
44431;DHT22;30135;47.866;-4.222;2023-06-24T11:37:37;24.40;69.30
44431;DHT22;30135;47.866;-4.222;2023-06-24T11:40:11;24.50;69.00
44431;DHT22;30135;47.866;-4.222;2023-06-24T11:42:41;24.50;68.80
44431;DHT22;30135;47.866;-4.222;2023-06-24T11:45:12;24.60;68.70
44431;DHT22;30135;47.866;-4.222;2023-06-24T11:47:40;24.60;68.50
44431;DHT22;30135;47.866;-4.222;2023-06-24T11:50:08;24.70;68.50
44431;DHT22;30135;47.866;-4.222;2023-06-24T11:58:03;24.80;67.00
44431;DHT22;30135;47.866;-4.222;2023-06-24T12:00:39;24.90;66.80
44431;DHT22;30135;47.866;-4.222;2023-06-24T12:03:11;24.90;66.90
44431;DHT22;30135;47.866;-4.222;2023-06-24T12:05:38;24.90;66.80
44431;DHT22;30135;47.866;-4.222;2023-06-24T12:08:11;24.90;66.20
44431;DHT22;30135;47.866;-4.222;2023-06-24T12:10:39;25.00;65.70
44431;DHT22;30135;47.866;-4.222;2023-06-24T12:13:05;25.00;65.60
44431;DHT22;30135;47.866;-4.222;2023-06-24T12:15:32;25.00;65.10
44431;DHT22;30135;47.866;-4.222;2023-06-24T12:17:59;25.10;64.70
44431;DHT22;30135;47.866;-4.222;2023-06-24T12:20:26;25.10;64.60
44431;DHT22;30135;47.866;-4.222;2023-06-24T12:22:52;25.10;64.60
44431;DHT22;30135;47.866;-4.222;2023-06-24T12:25:18;25.20;64.50
44431;DHT22;30135;47.866;-4.222;2023-06-24T12:27:44;25.20;64.30
44431;DHT22;30135;47.866;-4.222;2023-06-24T12:30:11;25.30;64.30
44431;DHT22;30135;47.866;-4.222;2023-06-24T12:32:38;25.30;64.10
44431;DHT22;30135;47.866;-4.222;2023-06-24T12:35:04;25.30;63.80
44431;DHT22;30135;47.866;-4.222;2023-06-24T12:37:32;25.40;63.60
44431;DHT22;30135;47.866;-4.222;2023-06-24T12:40:03;25.50;63.40
44431;DHT22;30135;47.866;-4.222;2023-06-24T12:42:29;25.50;63.10
44431;DHT22;30135;47.866;-4.222;2023-06-24T12:44:55;25.50;63.20
44431;DHT22;30135;47.866;-4.222;2023-06-24T12:47:22;25.50;63.00
44431;DHT22;30135;47.866;-4.222;2023-06-24T12:49:49;25.50;62.80
44431;DHT22;30135;47.866;-4.222;2023-06-24T12:52:16;25.50;62.50
44431;DHT22;30135;47.866;-4.222;2023-06-24T12:54:42;25.60;62.10
44431;DHT22;30135;47.866;-4.222;2023-06-24T12:57:08;25.60;62.00
44431;DHT22;30135;47.866;-4.222;2023-06-24T12:59:34;25.60;62.10
44431;DHT22;30135;47.866;-4.222;2023-06-24T13:02:01;25.60;62.10
44431;DHT22;30135;47.866;-4.222;2023-06-24T13:04:27;25.70;61.90
44431;DHT22;30135;47.866;-4.222;2023-06-24T13:06:53;25.80;61.70
44431;DHT22;30135;47.866;-4.222;2023-06-24T13:09:19;25.80;61.70
44431;DHT22;30135;47.866;-4.222;2023-06-24T13:11:46;25.80;61.40
44431;DHT22;30135;47.866;-4.222;2023-06-24T13:14:13;25.90;61.40
44431;DHT22;30135;47.866;-4.222;2023-06-24T13:16:39;25.90;61.10
44431;DHT22;30135;47.866;-4.222;2023-06-24T13:19:05;25.90;61.10
44431;DHT22;30135;47.866;-4.222;2023-06-24T13:21:31;26.00;61.10
44431;DHT22;30135;47.866;-4.222;2023-06-24T13:23:57;26.00;60.80
44431;DHT22;30135;47.866;-4.222;2023-06-24T13:26:23;26.10;60.60
44431;DHT22;30135;47.866;-4.222;2023-06-24T13:28:50;26.10;60.40
44431;DHT22;30135;47.866;-4.222;2023-06-24T13:31:16;26.10;60.00
44431;DHT22;30135;47.866;-4.222;2023-06-24T13:33:42;26.20;59.50
44431;DHT22;30135;47.866;-4.222;2023-06-24T13:36:26;26.20;59.20
44431;DHT22;30135;47.866;-4.222;2023-06-24T13:38:58;26.20;59.00
44431;DHT22;30135;47.866;-4.222;2023-06-24T13:41:24;26.30;58.90
44431;DHT22;30135;47.866;-4.222;2023-06-24T13:43:52;26.30;58.90
44431;DHT22;30135;47.866;-4.222;2023-06-24T13:46:19;26.30;58.50
44431;DHT22;30135;47.866;-4.222;2023-06-24T13:48:45;26.30;58.40
44431;DHT22;30135;47.866;-4.222;2023-06-24T13:51:10;26.30;58.10
44431;DHT22;30135;47.866;-4.222;2023-06-24T13:53:36;26.30;57.90
44431;DHT22;30135;47.866;-4.222;2023-06-24T13:56:03;26.30;57.90
44431;DHT22;30135;47.866;-4.222;2023-06-24T13:58:29;26.30;57.90
44431;DHT22;30135;47.866;-4.222;2023-06-24T14:00:55;26.30;58.20
44431;DHT22;30135;47.866;-4.222;2023-06-24T14:03:21;26.30;57.80
44431;DHT22;30135;47.866;-4.222;2023-06-24T14:05:47;26.30;57.70
44431;DHT22;30135;47.866;-4.222;2023-06-24T14:08:13;26.30;57.60
44431;DHT22;30135;47.866;-4.222;2023-06-24T14:10:39;26.30;57.40
44431;DHT22;30135;47.866;-4.222;2023-06-24T14:13:05;26.30;57.50
44431;DHT22;30135;47.866;-4.222;2023-06-24T14:15:31;26.30;57.60
44431;DHT22;30135;47.866;-4.222;2023-06-24T14:17:57;26.40;57.60
44431;DHT22;30135;47.866;-4.222;2023-06-24T14:20:23;26.30;57.40
44431;DHT22;30135;47.866;-4.222;2023-06-24T14:22:50;26.30;57.30
44431;DHT22;30135;47.866;-4.222;2023-06-24T14:25:17;26.30;57.20
44431;DHT22;30135;47.866;-4.222;2023-06-24T14:27:43;26.30;57.30
44431;DHT22;30135;47.866;-4.222;2023-06-24T14:30:10;26.30;57.40
44431;DHT22;30135;47.866;-4.222;2023-06-24T14:32:37;26.40;57.40
44431;DHT22;30135;47.866;-4.222;2023-06-24T14:35:03;26.30;57.80
44431;DHT22;30135;47.866;-4.222;2023-06-24T14:37:29;26.40;57.60
44431;DHT22;30135;47.866;-4.222;2023-06-24T14:39:55;26.40;57.40
44431;DHT22;30135;47.866;-4.222;2023-06-24T14:42:21;26.40;57.20
44431;DHT22;30135;47.866;-4.222;2023-06-24T14:44:55;26.40;57.40
44431;DHT22;30135;47.866;-4.222;2023-06-24T14:47:21;26.40;57.40
44431;DHT22;30135;47.866;-4.222;2023-06-24T14:49:47;26.40;57.30
44431;DHT22;30135;47.866;-4.222;2023-06-24T14:52:16;26.40;57.30
44431;DHT22;30135;47.866;-4.222;2023-06-24T14:54:42;26.40;57.20
44431;DHT22;30135;47.866;-4.222;2023-06-24T14:57:08;26.40;57.00
44431;DHT22;30135;47.866;-4.222;2023-06-24T14:59:33;26.40;57.20
44431;DHT22;30135;47.866;-4.222;2023-06-24T15:01:59;26.40;57.00
44431;DHT22;30135;47.866;-4.222;2023-06-24T15:04:25;26.40;57.00
44431;DHT22;30135;47.866;-4.222;2023-06-24T15:06:51;26.40;56.80
44431;DHT22;30135;47.866;-4.222;2023-06-24T15:09:17;26.40;56.60
44431;DHT22;30135;47.866;-4.222;2023-06-24T15:11:44;26.40;56.50
44431;DHT22;30135;47.866;-4.222;2023-06-24T15:14:10;26.40;56.40
44431;DHT22;30135;47.866;-4.222;2023-06-24T15:16:36;26.40;56.40
44431;DHT22;30135;47.866;-4.222;2023-06-24T15:19:02;26.50;56.30
44431;DHT22;30135;47.866;-4.222;2023-06-24T15:21:28;26.50;56.00
44431;DHT22;30135;47.866;-4.222;2023-06-24T15:23:54;26.50;55.90
44431;DHT22;30135;47.866;-4.222;2023-06-24T15:26:20;26.50;55.70
44431;DHT22;30135;47.866;-4.222;2023-06-24T15:28:46;26.50;55.80
44431;DHT22;30135;47.866;-4.222;2023-06-24T15:31:13;26.50;55.60
44431;DHT22;30135;47.866;-4.222;2023-06-24T15:33:39;26.50;55.50
44431;DHT22;30135;47.866;-4.222;2023-06-24T15:36:05;26.60;55.50
44431;DHT22;30135;47.866;-4.222;2023-06-24T15:38:32;26.60;55.60
44431;DHT22;30135;47.866;-4.222;2023-06-24T15:40:58;26.60;55.50